Latest Weather Observations for Melbourne Airport

IDV60801

Issued at 9:35 am EST Monday 21 April 2014 (issued every 30 minutes, with the page automatically refreshed every 10 minutes)

About weather observations | Map of weather stations | Latest weather observations for VIC | Other Formats
Station Details ID: 086282 Name: MELBOURNE AIRPORT Lat: -37.67 Lon: 144.83 Height: 113.4 m
Data from the previous 72 hours. | See also: Recent months at Melbourne Airport
Date/Time
EST
Temp
°C
App
Temp
°C
Dew
Point
Rel
Hum
%
Delta-T
°C
Wind Press
QNH
hPa
Press
MSL
hPa
Rain
since 9 am
mm
Dir
 
Spd
km/h
Gust
km/h
Spd
kts
Gust
kts
21/09:30am 14.2 4.2 4.2 51 4.6 N 46 61 25 33 1018.8 - 0.0
21/09:00am 13.6 4.1 4.0 52 4.4 N 43 56 23 30 1018.9 1018.7 0.0
21/08:30am 12.7 3.3 4.4 57 3.8 N 43 54 23 29 1019.0 - 0.0
21/08:00am 12.1 3.4 4.1 58 3.6 N 39 50 21 27 1018.6 1018.4 0.0
21/07:30am 11.8 2.7 4.0 59 3.5 N 41 52 22 28 1018.7 - 0.0
21/07:00am 11.5 2.1 4.2 61 3.3 N 43 54 23 29 1018.6 1018.4 0.0
21/06:30am 11.2 2.5 4.3 62 3.1 N 39 56 21 30 1018.4 - 0.0
21/06:00am 11.0 2.4 4.6 64 2.9 N 39 50 21 27 1018.2 1018.0 0.0
21/05:30am 11.3 3.0 4.2 61 3.2 N 37 46 20 25 1018.2 - 0.0
21/05:00am 11.3 3.4 4.2 61 3.2 N 35 44 19 24 1017.9 1017.8 0.0
21/04:30am 11.1 3.2 4.5 64 3.0 N 35 44 19 24 1017.6 - 0.0
21/04:00am 11.3 3.4 4.5 63 3.1 N 35 43 19 23 1017.6 1017.5 0.0
21/03:30am 11.4 4.1 4.6 63 3.1 N 32 39 17 21 1017.7 - 0.0
21/03:00am 11.5 2.9 4.4 61 3.2 N 39 52 21 28 1017.5 1017.4 0.0
21/02:30am 11.8 3.5 4.3 60 3.4 N 37 44 20 24 1017.5 - 0.0
21/02:00am 12.0 4.7 4.3 59 3.5 N 32 39 17 21 1017.5 1017.4 0.0
21/01:30am 12.1 3.9 4.7 60 3.4 N 37 46 20 25 1017.7 - 0.0
21/01:00am 12.4 3.8 4.5 58 3.6 N 39 48 21 26 1017.7 1017.6 0.0
21/12:30am 12.8 5.3 4.5 57 3.8 N 33 44 18 24 1017.9 - 0.0
21/12:00am 13.4 5.5 4.2 53 4.2 N 35 52 19 28 1017.8 1017.7 0.0
 
Date/Time
EST
Temp
°C
App
Temp
°C
Dew
Point
Rel
Hum
%
Delta-T
°C
Wind Press
QNH
hPa
Press
MSL
hPa
Rain
since 9 am
mm
Dir
 
Spd
km/h
Gust
km/h
Spd
kts
Gust
kts
20/11:30pm 13.0 6.1 4.8 57 3.8 N 30 37 16 20 1017.9 - 0.0
20/11:00pm 12.5 6.4 4.9 60 3.5 N 26 32 14 17 1018.2 1018.0 0.0
20/10:30pm 12.7 7.0 4.9 59 3.6 N 24 35 13 19 1018.3 - 0.0
20/10:00pm 13.0 6.9 5.0 58 3.7 N 26 35 14 19 1018.5 1018.3 0.0
20/09:30pm 13.0 7.0 5.3 59 3.6 N 26 30 14 16 1018.3 - 0.0
20/09:00pm 13.4 8.2 5.3 58 3.8 N 22 26 12 14 1018.3 1018.1 0.0
20/08:30pm 13.8 8.6 5.3 56 4.0 N 22 26 12 14 1018.3 - 0.0
20/08:00pm 14.2 10.0 5.8 57 4.0 N 17 24 9 13 1018.2 1018.0 0.0
20/07:30pm 13.8 9.6 5.8 58 3.8 N 17 22 9 12 1018.1 - 0.0
20/07:00pm 13.9 10.6 6.2 59 3.7 N 13 17 7 9 1017.7 1017.6 0.0
20/06:30pm 13.7 9.5 5.9 59 3.7 N 17 19 9 10 1017.5 - 0.0
20/06:00pm 14.5 11.0 5.4 54 4.3 N 13 15 7 8 1017.2 1017.1 0.0
20/05:30pm 15.6 12.0 4.8 48 5.1 NNW 13 17 7 9 1016.9 - 0.0
20/05:00pm 16.5 12.4 4.4 44 5.7 NW 15 20 8 11 1016.8 1016.7 0.0
20/04:30pm 17.6 13.8 4.1 40 6.4 NW 13 22 7 12 1016.6 - 0.0
20/04:00pm 18.5 14.2 3.4 36 7.1 W 15 20 8 11 1016.5 1016.4 0.0
20/03:30pm 17.7 13.9 3.9 40 6.5 WNW 13 17 7 9 1016.5 - 0.0
20/03:00pm 17.3 13.1 3.9 41 6.3 WSW 15 20 8 11 1016.6 1016.5 0.0
20/02:30pm 17.3 12.2 3.3 39 6.5 W 19 26 10 14 1016.4 - 0.0
20/02:00pm 17.6 12.9 3.2 38 6.7 WNW 17 26 9 14 1016.3 1016.2 0.0
20/01:30pm 17.9 13.8 2.4 35 7.1 WSW 13 20 7 11 1016.5 - 0.0
20/01:00pm 16.6 11.5 2.8 39 6.3 W 19 28 10 15 1016.9 1016.8 0.0
20/12:30pm 16.6 11.8 2.5 38 6.4 W 17 24 9 13 1017.1 - 0.0
20/12:00pm 16.9 12.1 2.7 38 6.5 W 17 30 9 16 1017.4 1017.3 0.0
20/11:30am 17.5 12.3 3.3 38 6.6 NNW 20 30 11 16 1017.7 - 0.0
20/11:00am 17.0 11.4 3.4 40 6.3 NW 22 30 12 16 1018.1 1017.9 0.0
20/10:30am 15.7 10.4 3.2 43 5.7 NW 20 30 11 16 1018.3 - 0.0
20/10:00am 14.7 10.6 4.6 50 4.7 NNW 15 19 8 10 1018.5 1018.3 0.0
20/09:30am 14.1 10.5 4.9 54 4.3 NNW 13 19 7 10 1018.6 - 0.0
20/09:00am 12.8 9.0 5.6 61 3.4 N 15 19 8 10 1018.5 1018.3 0.0
20/08:30am 12.5 8.2 5.4 62 3.3 N 17 19 9 10 1018.4 - 0.0
20/08:00am 12.3 7.9 4.9 60 3.4 NNW 17 22 9 12 1018.2 1018.0 0.0
20/07:30am 12.2 7.4 4.5 59 3.5 NNW 19 24 10 13 1017.8 - 0.0
20/07:00am 11.9 7.4 4.4 60 3.4 NNW 17 20 9 11 1017.6 1017.5 0.0
20/06:30am 11.8 8.1 4.6 61 3.3 NNW 13 15 7 8 1017.6 - 0.0
20/06:00am 11.1 8.4 5.5 68 2.6 NW 9 11 5 6 1017.2 1017.1 0.0
20/05:30am 11.1 7.6 5.5 68 2.6 N 13 15 7 8 1017.0 - 0.0
20/05:00am 11.4 7.4 5.1 65 2.9 N 15 17 8 9 1016.9 1016.8 0.0
20/04:30am 11.2 7.5 6.1 71 2.4 N 15 17 8 9 1016.8 - 0.0
20/04:00am 11.5 8.1 6.0 69 2.6 N 13 17 7 9 1016.8 1016.7 0.0
20/03:30am 11.5 7.9 6.7 72 2.3 N 15 19 8 10 1016.9 - 0.0
20/03:00am 11.4 8.1 7.9 79 1.7 N 15 17 8 9 1016.9 1016.8 0.0
20/02:30am 11.7 9.5 7.8 77 1.9 NNW 9 11 5 6 1017.0 - 0.0
20/02:00am 11.6 9.5 8.4 81 1.6 N 9 11 5 6 1017.3 1017.2 0.0
20/01:30am 11.7 9.6 8.3 79 1.7 N 9 11 5 6 1017.4 - 0.0
20/01:00am 11.3 9.7 8.9 85 1.2 NW 7 11 4 6 1017.5 1017.4 0.0
20/12:30am 11.4 9.0 8.8 84 1.3 N 11 13 6 7 1017.5 - 0.0
20/12:00am 11.6 9.6 8.6 82 1.5 N 9 11 5 6 1017.6 1017.5 0.0
 
Date/Time
EST
Temp
°C
App
Temp
°C
Dew
Point
Rel
Hum
%
Delta-T
°C
Wind Press
QNH
hPa
Press
MSL
hPa
Rain
since 9 am
mm
Dir
 
Spd
km/h
Gust
km/h
Spd
kts
Gust
kts
19/11:30pm 11.2 9.2 8.8 85 1.2 N 9 11 5 6 1017.9 - 0.0
19/11:00pm 11.8 9.8 8.6 81 1.6 NNW 9 11 5 6 1018.4 1018.2 0.0
19/10:30pm 11.2 9.2 8.6 84 1.3 NW 9 11 5 6 1018.5 - 0.0
19/10:00pm 10.5 8.3 8.0 84 1.2 N 9 11 5 6 1018.6 1018.4 0.0
19/09:30pm 10.4 9.8 7.5 82 1.4 CALM 0 0 0 0 1018.7 - 0.0
19/09:00pm 11.6 11.2 8.4 81 1.6 CALM 0 0 0 0 1018.8 1018.6 0.0
19/08:30pm 12.8 12.4 8.2 73 2.3 CALM 0 0 0 0 1018.8 - 0.0
19/08:00pm 12.8 11.7 8.4 74 2.2 ENE 4 9 2 5 1018.9 1018.7 0.0
19/07:30pm 13.0 10.9 8.2 72 2.4 NNE 9 9 5 5 1018.9 - 0.0
19/07:00pm 13.4 11.2 7.7 68 2.8 ESE 9 11 5 6 1018.8 1018.6 0.0
19/06:30pm 13.6 11.4 7.7 67 2.9 ESE 9 11 5 6 1018.7 - 0.0
19/06:00pm 13.3 10.8 8.3 72 2.5 SE 11 13 6 7 1018.6 1018.4 0.0
19/05:30pm 13.8 10.4 7.7 66 3.0 SSE 15 17 8 9 1018.6 - 0.0
19/05:00pm 14.2 10.4 7.5 64 3.3 SSE 17 22 9 12 1018.7 1018.5 0.0
19/04:30pm 14.8 11.1 4.2 49 4.9 SW 13 17 7 9 1018.6 - 0.0
19/04:00pm 15.1 11.3 4.1 47 5.1 S 13 17 7 9 1018.8 1018.6 0.0
19/03:30pm 15.2 10.8 4.5 49 5.0 SSW 17 24 9 13 1018.8 - 0.0
19/03:00pm 14.9 10.4 6.0 55 4.3 SW 19 26 10 14 1018.8 1018.6 0.0
19/02:30pm 15.6 11.2 4.5 47 5.2 S 17 22 9 12 1018.9 - 0.0
19/02:00pm 14.8 10.6 5.6 54 4.4 S 17 26 9 14 1019.1 1019.0 0.0
19/01:30pm 15.6 11.8 4.0 46 5.4 SSW 13 15 7 8 1019.1 - 0.0
19/01:00pm 15.5 11.4 4.1 46 5.3 WSW 15 22 8 12 1019.5 1019.4 0.0
19/12:30pm 15.4 10.3 3.9 46 5.3 S 20 28 11 15 1020.0 - 0.0
19/12:00pm 14.6 9.1 4.2 49 4.8 SSW 22 32 12 17 1020.4 1020.3 0.0
19/11:30am 15.2 9.5 4.8 50 4.9 SSW 24 32 13 17 1020.6 - 0.0
19/11:00am 14.8 9.4 4.5 50 4.8 SW 22 30 12 16 1020.7 1020.6 0.0
19/10:30am 14.2 8.3 3.7 49 4.8 SW 24 33 13 18 1020.8 - 0.0
19/10:00am 14.0 9.0 4.5 52 4.4 SW 20 28 11 15 1020.8 1020.7 0.0
19/09:30am 13.2 8.4 5.5 59 3.6 SW 20 28 11 15 1020.8 - 0.0
19/09:00am 12.6 8.6 6.5 66 2.9 WSW 17 24 9 13 1020.8 1020.7 1.6
19/08:30am 11.3 7.6 6.2 71 2.4 WSW 15 19 8 10 1020.7 - 1.6
19/08:00am 10.3 6.2 6.0 75 2.0 W 17 22 9 12 1020.5 1020.4 1.6
19/07:30am 9.9 6.5 6.0 77 1.8 W 13 19 7 10 1020.1 - 1.6
19/07:00am 9.2 7.1 5.9 80 1.5 SW 6 9 3 5 1020.0 1019.9 1.6
19/06:30am 9.1 5.2 5.3 77 1.7 W 15 17 8 9 1019.8 - 1.6
19/06:00am 9.9 6.1 5.8 75 1.9 W 15 19 8 10 1019.4 1019.3 1.6
19/05:30am 10.1 6.0 6.0 76 1.9 WSW 17 22 9 12 1019.3 - 1.6
19/05:00am 10.3 6.3 6.5 77 1.8 WSW 17 19 9 10 1019.2 1019.1 1.6
19/04:30am 10.6 5.9 6.1 74 2.1 WSW 20 26 11 14 1019.2 - 1.6
19/04:00am 10.4 6.3 6.3 76 1.9 WSW 17 22 9 12 1019.2 1019.1 1.6
19/03:30am 10.4 6.0 6.6 77 1.8 WSW 19 26 10 14 1019.3 - 1.6
19/03:00am 10.3 5.9 6.7 78 1.7 WSW 19 24 10 13 1019.5 1019.4 1.6
19/02:30am 9.9 6.0 6.9 81 1.4 WSW 17 24 9 13 1019.7 - 1.6
19/02:00am 9.7 5.2 6.9 83 1.3 WSW 20 26 11 14 1019.7 1019.6 1.6
19/01:30am 10.4 5.9 7.0 79 1.6 WSW 20 26 11 14 1019.9 - 1.6
19/01:00am 10.4 5.9 7.0 79 1.6 W 20 26 11 14 1020.1 1020.0 1.6
19/12:30am 9.9 5.9 6.7 80 1.5 W 17 20 9 11 1020.2 - 1.6
19/12:00am 9.9 5.9 6.7 80 1.5 W 17 22 9 12 1020.2 1020.1 1.6
 
Date/Time
EST
Temp
°C
App
Temp
°C
Dew
Point
Rel
Hum
%
Delta-T
°C
Wind Press
QNH
hPa
Press
MSL
hPa
Rain
since 9 am
mm
Dir
 
Spd
km/h
Gust
km/h
Spd
kts
Gust
kts
18/11:30pm 9.9 5.9 6.7 80 1.5 W 17 22 9 12 1020.1 - 1.6
18/11:00pm 9.5 5.9 6.7 83 1.3 WSW 15 19 8 10 1020.1 1020.0 1.6
18/10:30pm 9.6 6.0 6.6 81 1.4 WSW 15 19 8 10 1020.4 - 1.6
18/10:00pm 10.0 6.4 6.6 79 1.6 WSW 15 19 8 10 1020.5 1020.4 1.6
18/09:30pm 10.6 6.1 6.3 75 2.0 WSW 19 24 10 13 1020.4 - 1.6
18/09:00pm 10.4 6.3 6.1 75 2.0 WSW 17 19 9 10 1020.1 1020.0 1.6
18/08:30pm 11.1 7.0 6.2 72 2.3 SW 17 20 9 11 1020.0 - 1.6
18/08:00pm 11.8 6.7 6.1 68 2.7 SW 22 30 12 16 1019.9 1019.8 1.6
18/07:30pm 11.8 7.6 5.8 66 2.8 SW 17 24 9 13 1019.6 - 1.6
18/07:00pm 11.8 7.5 5.3 64 3.0 SW 17 22 9 12 1019.4 1019.3 1.6
18/06:30pm 12.3 8.0 5.2 62 3.3 SSW 17 20 9 11 1019.1 - 1.6
18/06:00pm 12.7 9.8 6.7 67 2.9 SSW 11 15 6 8 1018.8 1018.6 1.6
18/05:30pm 14.5 10.5 6.5 58 3.9 S 17 26 9 14 1018.6 - 1.6
18/05:00pm 14.6 10.3 6.8 59 3.8 S 19 26 10 14 1018.3 1018.1 1.6
18/04:30pm 15.3 10.0 7.0 57 4.1 S 24 33 13 18 1017.8 - 1.6
18/04:00pm 15.5 10.2 6.7 55 4.3 S 24 32 13 17 1017.5 1017.4 1.6
18/03:30pm 16.5 9.6 2.3 38 6.4 SSW 28 37 15 20 1017.2 - 1.6
18/03:00pm 17.2 11.8 4.3 42 6.1 SSW 22 33 12 18 1017.1 1017.0 1.6
18/02:30pm 15.6 11.9 9.4 66 3.2 SSW 19 26 10 14 1017.1 - 1.6
18/02:00pm 14.4 10.8 10.4 77 2.1 S 20 32 11 17 1017.0 1016.9 1.6
18/01:30pm 16.0 12.6 11.4 74 2.5 S 20 30 11 16 1016.7 - 1.6
18/01:00pm 15.2 10.4 11.5 78 2.0 SW 28 37 15 20 1016.6 1016.5 1.6
18/12:30pm 14.2 9.8 11.6 84 1.4 WSW 26 33 14 18 1016.8 - 1.6
18/12:00pm 13.2 7.2 10.7 85 1.3 WSW 33 44 18 24 1017.0 1016.9 1.6
18/11:50am 13.9 9.4 12.6 92 0.7 WSW 28 46 15 25 1016.8 - 1.2
18/11:30am 14.0 10.2 12.5 91 0.8 WSW 24 33 13 18 1016.8 - 1.0
18/11:23am 13.7 9.5 12.4 92 0.7 WSW 26 35 14 19 1016.7 - 1.0
18/11:00am 13.7 7.8 12.4 92 0.7 SW 35 48 19 26 1016.5 1016.4 1.0
18/10:30am 16.6 13.5 12.3 76 2.4 WSW 20 28 11 15 1015.7 - 0.0
18/10:00am 17.1 13.1 11.8 71 2.9 W 24 35 13 19 1015.7 1015.6 0.0

Other Formats:

Comma delimited format used in spreadsheet applications
http://www.bom.gov.au/fwo/IDV60801/IDV60801.94866.axf

JavaScript Object Notation format (JSON) in row-major order
http://www.bom.gov.au/fwo/IDV60801/IDV60801.94866.json